Time;durP1;ratioP1;P1;durP2;ratioP2;P2;SDS_P1;SDS_P2;PMS_P1;PMS_P2;Temp;Humidity;BMP_temperature;BMP_pressure;BME280_temperature;BME280_humidity;BME280_pressure;Samples;Min_cycle;Max_cycle;Signal;HPM_P1;HPM_P2
2021/10/27 00:00:50;;;;;;;7.50;4.70;;;13.90;99.90;;;;;;4132982;28;20030;-71
2021/10/27 00:02:50;;;;;;;8.10;4.18;;;13.80;99.90;;;;;;4147458;28;20046;-71
2021/10/27 00:04:51;;;;;;;9.10;4.28;;;13.90;99.90;;;;;;4151437;28;20034;-72
2021/10/27 00:06:51;;;;;;;8.02;4.50;;;13.90;99.90;;;;;;4151833;28;20412;-71
2021/10/27 00:08:52;;;;;;;10.98;4.82;;;13.80;99.90;;;;;;4150538;28;20038;-71
2021/10/27 00:10:53;;;;;;;6.78;4.45;;;13.80;99.90;;;;;;4158108;28;20041;-72
2021/10/27 00:12:53;;;;;;;7.40;4.28;;;13.80;99.90;;;;;;4152147;28;20106;-71
2021/10/27 00:14:55;;;;;;;7.00;4.32;;;13.80;99.90;;;;;;4154221;28;20033;-72
2021/10/27 00:16:56;;;;;;;5.90;4.33;;;13.80;99.90;;;;;;4153327;28;20037;-71
2021/10/27 00:18:57;;;;;;;7.07;4.65;;;13.80;99.90;;;;;;4149594;28;20272;-71
2021/10/27 00:20:57;;;;;;;6.90;4.20;;;13.90;99.90;;;;;;4149677;28;20038;-72
2021/10/27 00:22:58;;;;;;;8.65;4.75;;;13.90;99.90;;;;;;4152885;28;20045;-71
2021/10/27 00:24:59;;;;;;;6.80;4.65;;;13.90;99.90;;;;;;4153133;28;20034;-71
2021/10/27 00:26:59;;;;;;;6.88;4.55;;;13.80;99.90;;;;;;4153838;28;20672;-71
2021/10/27 00:29:00;;;;;;;6.95;4.47;;;13.80;99.90;;;;;;4151495;28;20582;-71
2021/10/27 00:31:01;;;;;;;6.53;4.47;;;13.90;99.90;;;;;;4151171;28;20046;-71
2021/10/27 00:33:01;;;;;;;7.22;4.72;;;13.90;99.90;;;;;;4151961;28;21644;-71
2021/10/27 00:35:03;;;;;;;5.30;4.22;;;13.90;99.90;;;;;;4155065;28;20041;-71
2021/10/27 00:37:04;;;;;;;8.90;4.10;;;14.00;99.90;;;;;;4153305;28;20033;-71
2021/10/27 00:39:04;;;;;;;6.00;4.28;;;13.90;99.90;;;;;;4154279;28;20176;-71
2021/10/27 00:41:09;;;;;;;9.68;4.45;;;14.00;99.90;;;;;;4153452;28;20029;-71
2021/10/27 00:43:09;;;;;;;9.25;3.85;;;13.90;99.90;;;;;;4153241;28;20045;-71
2021/10/27 00:45:10;;;;;;;7.50;4.80;;;13.90;99.90;;;;;;4155190;28;20409;-71
2021/10/27 00:47:13;;;;;;;7.00;4.40;;;14.00;99.90;;;;;;4151253;28;20478;-71
2021/10/27 00:49:14;;;;;;;6.45;4.30;;;14.00;99.90;;;;;;4150786;28;20041;-71
2021/10/27 00:51:15;;;;;;;10.60;4.85;;;14.00;99.90;;;;;;4153801;28;20049;-71
2021/10/27 00:53:15;;;;;;;7.70;4.75;;;14.00;99.90;;;;;;4154147;28;20067;-71
2021/10/27 00:55:16;;;;;;;9.75;4.97;;;14.00;99.90;;;;;;4155286;28;20124;-72
2021/10/27 00:57:21;;;;;;;8.40;4.70;;;14.00;99.90;;;;;;4152391;28;20026;-72
2021/10/27 00:59:25;;;;;;;7.97;4.68;;;14.00;99.90;;;;;;4155083;28;20042;-71
2021/10/27 01:01:26;;;;;;;9.63;4.70;;;14.00;99.90;;;;;;4155480;28;20049;-71
2021/10/27 01:03:27;;;;;;;8.52;4.40;;;14.00;99.90;;;;;;4151779;28;20033;-71
2021/10/27 01:05:28;;;;;;;9.60;5.13;;;14.00;99.90;;;;;;4154174;28;20029;-71
2021/10/27 01:07:29;;;;;;;7.70;4.78;;;14.00;99.90;;;;;;4154560;28;20521;-71
2021/10/27 01:09:30;;;;;;;11.05;4.97;;;14.00;99.90;;;;;;4151040;28;20532;-72
2021/10/27 01:11:30;;;;;;;7.30;4.57;;;14.00;99.90;;;;;;4149859;28;20025;-72
2021/10/27 01:13:32;;;;;;;10.77;4.55;;;14.00;99.90;;;;;;4151622;28;20113;-72
2021/10/27 01:15:42;;;;;;;9.38;4.90;;;14.00;99.90;;;;;;4153560;28;20041;-71
2021/10/27 01:17:43;;;;;;;8.60;4.60;;;14.00;99.90;;;;;;4151066;28;20117;-71
2021/10/27 01:19:49;;;;;;;9.73;5.00;;;14.00;99.90;;;;;;4152588;28;20050;-72
2021/10/27 01:21:49;;;;;;;8.73;4.60;;;14.00;99.90;;;;;;4151750;28;20041;-72
2021/10/27 01:23:51;;;;;;;8.18;4.88;;;14.00;99.90;;;;;;4150391;28;20025;-71
2021/10/27 01:25:52;;;;;;;9.20;4.18;;;14.00;99.90;;;;;;4152682;28;20040;-71
2021/10/27 01:27:53;;;;;;;6.88;4.50;;;14.00;99.90;;;;;;4155200;28;20037;-71
2021/10/27 01:29:55;;;;;;;10.37;5.37;;;14.00;99.90;;;;;;4151126;28;20033;-72
2021/10/27 01:31:56;;;;;;;8.43;4.57;;;14.00;99.90;;;;;;4152807;28;20057;-71
2021/10/27 01:33:59;;;;;;;10.32;4.43;;;14.00;99.90;;;;;;4151212;28;20044;-71
2021/10/27 01:36:00;;;;;;;5.50;4.50;;;14.00;99.90;;;;;;4149779;28;20033;-71
2021/10/27 01:38:01;;;;;;;9.27;4.68;;;14.00;99.90;;;;;;4150110;28;20090;-72
2021/10/27 01:40:03;;;;;;;7.70;4.13;;;14.00;99.90;;;;;;4151112;28;20040;-71
2021/10/27 01:42:04;;;;;;;6.07;4.30;;;14.00;99.90;;;;;;4152002;28;20058;-71
2021/10/27 01:44:04;;;;;;;5.90;4.10;;;14.00;99.90;;;;;;4151974;28;20281;-71
2021/10/27 01:46:05;;;;;;;6.47;4.25;;;14.00;99.90;;;;;;4154027;28;20049;-71
2021/10/27 01:48:08;;;;;;;7.28;4.85;;;14.00;99.90;;;;;;4151377;28;20055;-71
2021/10/27 01:50:10;;;;;;;6.10;4.10;;;13.90;99.90;;;;;;4152278;28;20037;-72
2021/10/27 01:52:11;;;;;;;8.18;4.28;;;14.00;99.90;;;;;;4152902;28;20657;-72
2021/10/27 01:57:09;;;;;;;8.50;4.20;;;13.90;99.90;;;;;;4150784;28;20120;-72
2021/10/27 01:59:09;;;;;;;7.38;4.20;;;13.90;99.90;;;;;;4152316;28;20041;-72
2021/10/27 02:01:10;;;;;;;6.90;3.53;;;13.90;99.90;;;;;;4153180;28;20041;-72
2021/10/27 02:03:11;;;;;;;7.45;4.15;;;13.90;99.90;;;;;;4151996;28;20072;-71
2021/10/27 02:05:13;;;;;;;9.32;4.15;;;13.90;99.90;;;;;;4157304;28;21012;-72
2021/10/27 02:07:13;;;;;;;6.07;3.88;;;13.90;99.90;;;;;;4148328;28;20106;-72
2021/10/27 02:09:14;;;;;;;6.47;3.90;;;13.90;99.90;;;;;;4150088;28;20494;-72
2021/10/27 02:11:14;;;;;;;5.25;3.80;;;13.90;99.90;;;;;;4151140;28;20111;-71
2021/10/27 02:13:15;;;;;;;8.60;4.00;;;13.90;99.90;;;;;;4152727;28;20392;-71
2021/10/27 02:15:16;;;;;;;9.07;4.25;;;13.90;99.90;;;;;;4154716;28;20033;-71
2021/10/27 02:17:16;;;;;;;5.95;3.63;;;13.90;99.90;;;;;;4152406;28;20512;-72
2021/10/27 02:19:17;;;;;;;6.47;4.07;;;13.90;99.90;;;;;;4151214;28;20022;-72
2021/10/27 02:21:18;;;;;;;9.60;4.35;;;13.90;99.90;;;;;;4142859;28;20607;-71
2021/10/27 02:23:19;;;;;;;6.70;4.00;;;13.90;99.90;;;;;;4152979;28;20033;-72
2021/10/27 02:25:19;;;;;;;6.78;4.05;;;13.90;99.90;;;;;;4151169;28;21550;-72
2021/10/27 02:27:20;;;;;;;10.93;3.75;;;13.90;99.90;;;;;;4153157;28;20056;-71
2021/10/27 02:29:21;;;;;;;5.90;3.83;;;13.90;99.90;;;;;;4147751;28;20025;-72
2021/10/27 02:31:21;;;;;;;8.75;4.00;;;13.90;99.90;;;;;;4149278;28;20030;-71
2021/10/27 02:33:22;;;;;;;7.00;3.58;;;13.90;99.90;;;;;;4151560;28;20046;-71
2021/10/27 02:35:23;;;;;;;8.82;3.95;;;13.90;99.90;;;;;;4149576;28;20030;-71
2021/10/27 02:37:23;;;;;;;5.95;3.55;;;13.90;99.90;;;;;;4151242;28;20026;-72
2021/10/27 02:39:24;;;;;;;9.98;3.65;;;13.90;99.90;;;;;;4150251;28;20021;-71
2021/10/27 02:41:25;;;;;;;4.80;3.33;;;13.90;99.90;;;;;;4151093;28;20072;-71
2021/10/27 02:43:26;;;;;;;8.32;4.60;;;13.90;99.90;;;;;;4150788;28;20046;-71
2021/10/27 02:45:26;;;;;;;4.82;3.53;;;13.90;99.90;;;;;;4148932;28;20367;-71
2021/10/27 02:47:27;;;;;;;12.63;4.05;;;13.90;99.90;;;;;;4146927;28;20717;-71
2021/10/27 02:49:27;;;;;;;9.60;4.05;;;13.90;99.90;;;;;;4151094;28;20041;-72
2021/10/27 02:51:28;;;;;;;6.05;3.30;;;13.90;99.90;;;;;;4147515;28;20044;-71
2021/10/27 02:53:29;;;;;;;8.45;4.10;;;13.90;99.90;;;;;;4151194;28;20152;-71
2021/10/27 02:55:30;;;;;;;8.20;4.25;;;13.90;99.90;;;;;;4153493;28;20033;-72
2021/10/27 02:57:31;;;;;;;6.88;3.47;;;13.90;99.90;;;;;;4149675;28;20116;-72
2021/10/27 02:59:32;;;;;;;7.35;3.78;;;13.90;99.90;;;;;;4152681;28;20061;-71
2021/10/27 03:01:33;;;;;;;7.95;4.03;;;14.00;99.90;;;;;;4149043;28;20084;-72
2021/10/27 03:03:33;;;;;;;13.30;4.45;;;14.00;99.90;;;;;;4148240;28;20081;-72
2021/10/27 03:05:34;;;;;;;6.85;4.10;;;14.00;99.90;;;;;;4150433;28;20100;-71
2021/10/27 03:07:35;;;;;;;7.82;3.88;;;14.00;99.90;;;;;;4158008;28;20079;-72
2021/10/27 03:09:35;;;;;;;8.00;3.72;;;14.00;99.90;;;;;;4151536;28;20067;-71
2021/10/27 03:11:36;;;;;;;7.35;3.20;;;14.00;99.90;;;;;;4149550;28;20096;-72
2021/10/27 03:13:37;;;;;;;4.60;3.35;;;14.00;99.90;;;;;;4145283;28;20140;-72
2021/10/27 03:15:37;;;;;;;8.63;4.22;;;14.00;99.90;;;;;;4151019;28;20049;-72
2021/10/27 03:17:38;;;;;;;10.60;3.72;;;14.00;99.90;;;;;;4148798;28;20049;-71
2021/10/27 03:19:39;;;;;;;8.45;4.03;;;14.00;99.90;;;;;;4148946;28;20045;-72
2021/10/27 03:21:39;;;;;;;11.18;4.35;;;14.00;99.90;;;;;;4130585;28;20046;-72
2021/10/27 03:23:40;;;;;;;7.85;4.32;;;14.00;99.90;;;;;;4152256;28;20030;-72
2021/10/27 03:25:41;;;;;;;6.40;3.92;;;14.00;99.90;;;;;;4150055;28;20398;-71
2021/10/27 03:27:42;;;;;;;6.38;3.83;;;14.00;99.90;;;;;;4147477;28;20108;-72
2021/10/27 03:29:42;;;;;;;8.77;4.22;;;14.00;99.90;;;;;;4150689;28;20052;-71
2021/10/27 03:31:43;;;;;;;10.38;4.57;;;14.00;99.90;;;;;;4147061;28;20060;-71
2021/10/27 03:33:43;;;;;;;10.57;4.00;;;14.00;99.90;;;;;;4151699;28;20053;-72
2021/10/27 03:35:44;;;;;;;5.72;3.63;;;13.90;99.90;;;;;;4150257;28;20634;-71
2021/10/27 03:37:45;;;;;;;12.80;4.30;;;13.90;99.90;;;;;;4149473;28;20464;-72
2021/10/27 03:39:46;;;;;;;6.95;3.75;;;13.90;99.90;;;;;;4149816;28;20046;-72
2021/10/27 03:41:46;;;;;;;7.72;3.35;;;13.90;99.90;;;;;;4151625;28;20045;-71
2021/10/27 03:43:47;;;;;;;5.68;3.65;;;13.90;99.90;;;;;;4150335;28;20037;-72
2021/10/27 03:45:48;;;;;;;7.93;3.85;;;13.90;99.90;;;;;;4151749;28;20048;-71
2021/10/27 03:47:49;;;;;;;7.00;3.90;;;13.90;99.90;;;;;;4151724;28;20046;-71
2021/10/27 03:49:50;;;;;;;7.72;3.83;;;13.90;99.90;;;;;;4147140;28;20151;-72
2021/10/27 03:51:50;;;;;;;10.60;3.90;;;13.90;99.90;;;;;;4150816;28;20069;-72
2021/10/27 03:53:51;;;;;;;11.10;4.50;;;13.90;99.90;;;;;;4148749;28;20042;-72
2021/10/27 03:55:54;;;;;;;7.90;4.05;;;13.90;99.90;;;;;;4152618;28;20504;-71
2021/10/27 03:57:58;;;;;;;;;;;13.90;99.90;;;;;;4151507;28;20037;-71
2021/10/27 03:59:59;;;;;;;7.65;3.60;;;13.90;99.90;;;;;;4151409;28;19927;-72
2021/10/27 04:02:00;;;;;;;6.45;4.00;;;13.90;99.90;;;;;;4148221;28;20519;-72
2021/10/27 04:04:01;;;;;;;5.75;3.58;;;13.80;99.90;;;;;;4149825;28;20049;-72
2021/10/27 04:06:02;;;;;;;10.52;3.70;;;13.90;99.90;;;;;;4149614;28;20579;-72
2021/10/27 04:08:02;;;;;;;9.00;4.00;;;13.80;99.90;;;;;;4151552;28;20045;-72
2021/10/27 04:10:08;;;;;;;8.82;4.22;;;13.80;99.90;;;;;;4150127;28;20021;-71
2021/10/27 04:12:09;;;;;;;10.35;4.18;;;13.80;99.90;;;;;;4151642;28;20044;-72
2021/10/27 04:14:10;;;;;;;8.35;4.15;;;13.90;99.90;;;;;;4151416;28;20375;-71
2021/10/27 04:16:11;;;;;;;5.90;4.10;;;13.80;99.90;;;;;;4150760;28;20099;-72
2021/10/27 04:18:11;;;;;;;11.05;3.53;;;13.80;99.90;;;;;;4144659;28;20038;-71
2021/10/27 04:20:12;;;;;;;6.55;3.33;;;13.80;99.90;;;;;;4148467;28;20041;-72
2021/10/27 04:22:13;;;;;;;8.35;3.95;;;13.90;99.90;;;;;;4150474;28;20030;-71
2021/10/27 04:24:13;;;;;;;10.45;4.07;;;13.80;99.90;;;;;;4152208;28;20115;-72
2021/10/27 04:26:14;;;;;;;8.20;3.72;;;13.90;99.90;;;;;;4149171;28;20038;-72
2021/10/27 04:28:15;;;;;;;6.47;3.50;;;13.90;99.90;;;;;;4149504;28;20474;-71
2021/10/27 04:30:15;;;;;;;7.30;4.20;;;13.80;99.90;;;;;;4152419;28;20044;-72
2021/10/27 04:32:16;;;;;;;8.88;4.25;;;13.90;99.90;;;;;;4150979;28;20037;-71
2021/10/27 04:34:17;;;;;;;9.85;4.30;;;13.90;99.90;;;;;;4149687;28;20042;-72
2021/10/27 04:36:18;;;;;;;8.10;3.42;;;13.80;99.90;;;;;;4149907;28;20042;-72
2021/10/27 04:38:22;;;;;;;11.00;4.47;;;13.90;99.90;;;;;;4151306;28;20060;-72
2021/10/27 04:40:23;;;;;;;7.72;3.80;;;13.90;99.90;;;;;;4152279;28;20045;-72
2021/10/27 04:42:23;;;;;;;6.45;3.58;;;13.90;99.90;;;;;;4150758;28;20117;-71
2021/10/27 04:44:24;;;;;;;12.88;3.92;;;13.90;99.90;;;;;;4151744;28;20713;-72
2021/10/27 04:46:25;;;;;;;9.82;3.90;;;13.90;99.90;;;;;;4149784;28;20106;-71
2021/10/27 04:48:26;;;;;;;6.63;3.60;;;13.90;99.90;;;;;;4151154;28;20073;-72
2021/10/27 04:50:26;;;;;;;6.15;3.47;;;13.90;99.90;;;;;;4150765;28;20029;-71
2021/10/27 04:52:27;;;;;;;5.80;3.47;;;13.90;99.90;;;;;;4153767;28;20042;-72
2021/10/27 04:54:28;;;;;;;8.85;4.45;;;13.90;99.90;;;;;;4150450;28;20037;-72
2021/10/27 04:56:30;;;;;;;7.85;3.78;;;13.90;99.90;;;;;;4150380;28;20477;-72
2021/10/27 04:58:30;;;;;;;7.18;4.10;;;13.90;99.90;;;;;;4151372;28;20050;-73
2021/10/27 05:00:31;;;;;;;13.32;4.20;;;13.90;99.90;;;;;;4153404;28;20409;-72
2021/10/27 05:02:31;;;;;;;9.60;3.67;;;13.90;99.90;;;;;;4158445;28;20080;-72
2021/10/27 05:04:32;;;;;;;8.65;4.05;;;13.90;99.90;;;;;;4160054;28;20092;-73
2021/10/27 05:06:34;;;;;;;6.25;3.53;;;13.90;99.90;;;;;;4158374;28;20406;-73
2021/10/27 05:08:35;;;;;;;9.25;4.07;;;13.90;99.90;;;;;;4155279;28;20136;-72
2021/10/27 05:10:36;;;;;;;10.57;4.25;;;13.90;99.90;;;;;;4158226;28;20040;-72
2021/10/27 05:12:37;;;;;;;7.07;3.65;;;13.90;99.90;;;;;;4152074;28;20038;-72
2021/10/27 05:14:39;;;;;;;8.38;4.03;;;13.90;99.90;;;;;;4158620;28;20056;-72
2021/10/27 05:16:40;;;;;;;6.57;3.88;;;13.90;99.90;;;;;;4145981;28;20079;-73
2021/10/27 05:18:40;;;;;;;8.50;3.80;;;14.00;99.90;;;;;;4102072;28;20049;-72
2021/10/27 05:20:42;;;;;;;8.90;4.22;;;13.90;99.90;;;;;;4152535;28;20034;-73
2021/10/27 05:22:43;;;;;;;6.68;3.75;;;13.90;99.90;;;;;;4153073;28;20053;-72
2021/10/27 05:24:43;;;;;;;7.88;3.90;;;13.90;99.90;;;;;;4155393;28;20047;-72
2021/10/27 05:26:44;;;;;;;8.27;4.07;;;13.90;99.90;;;;;;4158902;28;20604;-72
2021/10/27 05:28:45;;;;;;;9.60;3.55;;;13.80;99.90;;;;;;4161144;28;20385;-73
2021/10/27 05:30:47;;;;;;;8.70;4.00;;;13.90;99.90;;;;;;4155739;28;20037;-73
2021/10/27 05:32:47;;;;;;;5.47;3.58;;;13.90;99.90;;;;;;4158132;28;20046;-72
2021/10/27 05:34:48;;;;;;;7.63;3.42;;;13.90;99.90;;;;;;4158017;28;20144;-73
2021/10/27 05:36:49;;;;;;;5.18;3.50;;;13.90;99.90;;;;;;4154630;28;20120;-72
2021/10/27 05:38:50;;;;;;;10.00;4.18;;;13.80;99.90;;;;;;4153728;28;20045;-73
2021/10/27 05:40:50;;;;;;;9.50;3.83;;;13.80;99.90;;;;;;4132612;28;20047;-73
2021/10/27 05:42:51;;;;;;;7.57;3.97;;;13.80;99.90;;;;;;4138349;28;20131;-72
2021/10/27 05:44:52;;;;;;;5.97;4.20;;;13.80;99.90;;;;;;4150119;28;20040;-72
2021/10/27 05:46:53;;;;;;;10.55;4.22;;;13.90;99.90;;;;;;4135211;28;21309;-72
2021/10/27 05:49:11;;;;;;;5.25;3.40;;;13.80;99.90;;;;;;4148964;28;20046;-72
2021/10/27 05:51:37;;;;;;;7.15;3.65;;;13.90;99.90;;;;;;4153986;28;20084;-72
2021/10/27 05:55:57;;;;;;;13.07;3.95;;;13.80;99.90;;;;;;4155693;28;20038;-72
2021/10/27 05:57:57;;;;;;;11.65;4.40;;;13.80;99.90;;;;;;4152378;28;20052;-72
2021/10/27 05:59:58;;;;;;;8.60;4.30;;;13.80;99.90;;;;;;4143167;28;20053;-72
2021/10/27 06:01:59;;;;;;;6.03;3.30;;;13.80;99.90;;;;;;4135161;28;20053;-73
2021/10/27 06:04:00;;;;;;;7.65;3.38;;;13.80;99.90;;;;;;4159442;28;20115;-73
2021/10/27 06:06:00;;;;;;;6.88;3.38;;;13.80;99.90;;;;;;4152801;28;20034;-72
2021/10/27 06:08:02;;;;;;;8.43;3.70;;;13.80;99.90;;;;;;4157986;28;20041;-72
2021/10/27 06:10:04;;;;;;;7.65;3.70;;;13.80;99.90;;;;;;4152867;28;20687;-72
2021/10/27 06:12:08;;;;;;;8.48;3.42;;;13.80;99.90;;;;;;4152138;28;20061;-72
2021/10/27 06:14:09;;;;;;;10.57;3.55;;;13.80;99.90;;;;;;4152177;28;20128;-73
2021/10/27 06:16:09;;;;;;;7.15;3.40;;;13.80;99.90;;;;;;4153555;28;20033;-73
2021/10/27 06:18:10;;;;;;;6.28;3.47;;;13.80;99.90;;;;;;4156237;28;20797;-74
2021/10/27 06:20:11;;;;;;;8.75;3.55;;;13.80;99.90;;;;;;4153744;28;20112;-73
2021/10/27 06:22:12;;;;;;;8.05;3.67;;;13.80;99.90;;;;;;4170181;28;20538;-74
2021/10/27 06:24:13;;;;;;;9.55;3.60;;;13.80;99.90;;;;;;4153314;28;20091;-73
2021/10/27 06:26:14;;;;;;;7.63;3.38;;;13.80;99.90;;;;;;4137778;28;20033;-74
2021/10/27 06:28:21;;;;;;;8.73;3.67;;;13.80;99.90;;;;;;4151214;28;20033;-74
2021/10/27 06:30:27;;;;;;;7.13;3.45;;;13.80;99.90;;;;;;4150953;28;20048;-73
2021/10/27 06:32:54;;;;;;;9.45;3.95;;;13.80;99.90;;;;;;4157292;28;20535;-73
2021/10/27 06:34:59;;;;;;;7.28;3.60;;;13.80;99.90;;;;;;4153126;28;20128;-74
2021/10/27 06:45:55;;;;;;;6.82;3.28;;;13.80;99.90;;;;;;4153667;28;20132;-73
2021/10/27 06:46:41;;;;;;;8.80;2.92;;;13.80;99.90;;;;;;4153223;28;20029;-73
2021/10/27 06:48:42;;;;;;;9.88;3.38;;;13.90;99.90;;;;;;4155292;28;20045;-74
2021/10/27 06:50:43;;;;;;;9.98;3.40;;;13.80;99.90;;;;;;4150573;28;20033;-73
2021/10/27 06:52:44;;;;;;;7.05;3.25;;;13.80;99.90;;;;;;4153535;28;20045;-74
2021/10/27 06:54:49;;;;;;;6.18;3.08;;;13.80;99.90;;;;;;4152671;28;20028;-74
2021/10/27 06:56:51;;;;;;;4.50;2.92;;;13.90;99.90;;;;;;4153724;28;20036;-74
2021/10/27 07:00:56;;;;;;;6.25;3.00;;;13.90;99.90;;;;;;4148351;28;20127;-74
2021/10/27 07:16:26;;;;;;;5.13;2.80;;;13.90;99.90;;;;;;4152335;28;20037;-73
2021/10/27 07:18:27;;;;;;;6.35;3.05;;;13.90;99.90;;;;;;4152672;28;20500;-73
2021/10/27 07:20:28;;;;;;;8.50;3.17;;;13.90;99.90;;;;;;4155423;28;20069;-73
2021/10/27 07:22:29;;;;;;;9.53;3.67;;;13.90;99.90;;;;;;4151404;28;20068;-73
2021/10/27 07:24:30;;;;;;;14.85;3.38;;;13.90;99.90;;;;;;4153163;28;20044;-74
2021/10/27 07:26:31;;;;;;;8.30;3.47;;;13.90;99.90;;;;;;4155388;28;20704;-73
2021/10/27 07:28:32;;;;;;;7.05;2.85;;;13.90;99.90;;;;;;4158636;28;20053;-70
2021/10/27 07:30:33;;;;;;;9.27;3.40;;;13.90;99.90;;;;;;4149734;28;20721;-70
2021/10/27 07:32:35;;;;;;;7.03;2.97;;;13.90;99.90;;;;;;4153694;28;20135;-70
2021/10/27 07:34:39;;;;;;;5.72;2.92;;;13.90;99.90;;;;;;4152410;28;20101;-70
2021/10/27 07:39:51;;;;;;;6.88;2.50;;;14.00;99.90;;;;;;4154614;28;20044;-70
2021/10/27 07:41:19;;;;;;;6.63;3.40;;;13.90;99.90;;;;;;4150468;28;20037;-70
2021/10/27 07:43:27;;;;;;;6.47;2.75;;;13.90;99.90;;;;;;4159829;28;20041;-70
2021/10/27 07:45:30;;;;;;;5.75;2.90;;;14.00;99.90;;;;;;4155086;28;20191;-71
2021/10/27 07:47:31;;;;;;;4.82;2.75;;;14.00;99.90;;;;;;4152305;28;20049;-70
2021/10/27 07:49:32;;;;;;;5.05;2.88;;;14.00;99.90;;;;;;4151592;28;20107;-70
2021/10/27 07:51:32;;;;;;;6.47;3.20;;;14.10;99.90;;;;;;4152886;28;20037;-70
2021/10/27 07:53:34;;;;;;;6.35;2.60;;;14.00;99.90;;;;;;4157793;28;20038;-71
2021/10/27 07:55:39;;;;;;;5.63;2.95;;;14.10;99.90;;;;;;4152377;28;20049;-71
2021/10/27 07:57:40;;;;;;;6.20;2.78;;;14.10;99.90;;;;;;4150557;28;20041;-70
2021/10/27 07:59:40;;;;;;;4.13;2.60;;;14.10;99.90;;;;;;4156198;28;20499;-70
2021/10/27 08:01:41;;;;;;;6.10;3.05;;;14.10;99.90;;;;;;4154772;28;20029;-70
2021/10/27 08:03:42;;;;;;;5.63;2.90;;;14.10;99.90;;;;;;4155433;28;20029;-71
2021/10/27 08:05:43;;;;;;;6.40;2.95;;;14.10;99.90;;;;;;4153515;28;20029;-71
2021/10/27 08:07:49;;;;;;;4.47;3.10;;;14.10;99.90;;;;;;4156252;28;20121;-70
2021/10/27 08:09:49;;;;;;;4.70;2.88;;;14.10;99.90;;;;;;4151584;28;20026;-70
2021/10/27 08:11:50;;;;;;;4.13;2.97;;;14.20;99.90;;;;;;4150917;28;20034;-70
2021/10/27 08:13:51;;;;;;;9.90;3.85;;;14.20;99.90;;;;;;4134474;28;20530;-70
2021/10/27 08:15:55;;;;;;;11.15;3.42;;;14.20;99.90;;;;;;4154131;28;20676;-70
2021/10/27 08:17:55;;;;;;;9.93;3.72;;;14.20;99.90;;;;;;4151902;28;20045;-70
2021/10/27 08:19:56;;;;;;;6.20;2.85;;;14.10;99.90;;;;;;4154100;28;20405;-70
2021/10/27 08:21:59;;;;;;;7.82;3.40;;;14.20;99.90;;;;;;4150964;28;20049;-70
2021/10/27 08:24:01;;;;;;;7.43;3.60;;;14.20;99.90;;;;;;4153422;28;20166;-70
2021/10/27 08:26:07;;;;;;;6.68;3.10;;;14.20;99.90;;;;;;4154048;28;21152;-70
2021/10/27 08:28:14;;;;;;;7.20;3.53;;;14.30;99.90;;;;;;4150354;28;20732;-70
2021/10/27 08:30:17;;;;;;;4.07;2.55;;;14.30;99.90;;;;;;4155047;28;20440;-70
2021/10/27 08:32:40;;;;;;;7.72;3.47;;;14.30;99.90;;;;;;4152645;28;20124;-71
2021/10/27 08:34:46;;;;;;;10.48;3.47;;;14.30;99.90;;;;;;4155216;28;20037;-70
2021/10/27 08:36:47;;;;;;;5.38;2.95;;;14.30;99.90;;;;;;4154517;28;20178;-70
2021/10/27 08:38:49;;;;;;;5.15;3.08;;;14.30;99.90;;;;;;4156027;28;20132;-71
2021/10/27 08:40:50;;;;;;;10.52;3.67;;;14.30;99.90;;;;;;4160301;28;20040;-70
2021/10/27 08:42:51;;;;;;;8.82;3.00;;;14.30;99.90;;;;;;4152729;28;20046;-71
2021/10/27 08:44:52;;;;;;;5.53;3.05;;;14.40;99.90;;;;;;4156328;28;20042;-71
2021/10/27 08:46:53;;;;;;;6.22;3.08;;;14.40;99.90;;;;;;4158334;28;20375;-71
2021/10/27 08:48:55;;;;;;;8.35;3.50;;;14.40;99.90;;;;;;4172567;28;21048;-70
2021/10/27 08:50:56;;;;;;;6.70;3.08;;;14.40;99.90;;;;;;4132320;28;20429;-71
2021/10/27 08:52:56;;;;;;;7.03;3.30;;;14.50;99.90;;;;;;4156340;28;20044;-71
2021/10/27 08:54:58;;;;;;;8.07;2.90;;;14.50;99.90;;;;;;4156342;28;20460;-70
2021/10/27 08:57:04;;;;;;;7.75;3.00;;;14.50;99.90;;;;;;4153834;28;20041;-70
2021/10/27 08:59:13;;;;;;;5.18;2.45;;;14.50;99.90;;;;;;4153649;28;20044;-70
2021/10/27 09:01:31;;;;;;;5.38;2.50;;;14.50;99.90;;;;;;4156777;28;20042;-71
2021/10/27 09:05:48;;;;;;;5.53;2.35;;;14.60;99.90;;;;;;4155605;28;20041;-71
2021/10/27 09:14:22;;;;;;;5.93;2.40;;;14.70;99.90;;;;;;4154619;28;20329;-71
2021/10/27 09:15:30;;;;;;;5.38;2.95;;;14.70;99.90;;;;;;4152517;28;20042;-71
2021/10/27 09:36:51;;;;;;;6.95;2.75;;;15.00;99.90;;;;;;4156104;28;20120;-71
2021/10/27 09:43:50;;;;;;;6.13;2.30;;;15.20;99.90;;;;;;4158394;28;20052;-71
2021/10/27 10:04:53;;;;;;;4.47;2.13;;;16.20;99.90;;;;;;4153273;28;20037;-71
2021/10/27 10:06:58;;;;;;;5.38;2.20;;;16.30;99.90;;;;;;4155326;28;20963;-71
2021/10/27 10:08:58;;;;;;;11.20;2.90;;;16.40;99.90;;;;;;4154491;28;20555;-71
2021/10/27 10:11:00;;;;;;;6.25;2.38;;;16.50;99.90;;;;;;4154666;28;20029;-71
2021/10/27 10:13:02;;;;;;;5.13;1.98;;;16.50;99.90;;;;;;4152672;28;20037;-71
2021/10/27 10:15:04;;;;;;;7.00;2.33;;;16.60;99.90;;;;;;4154575;28;20462;-71
2021/10/27 10:17:07;;;;;;;5.23;2.10;;;16.70;99.90;;;;;;4159628;28;20033;-71
2021/10/27 10:19:19;;;;;;;5.07;1.90;;;16.70;99.90;;;;;;4154010;28;20284;-71
2021/10/27 10:21:26;;;;;;;5.60;2.33;;;16.80;99.90;;;;;;4154098;28;20086;-72
2021/10/27 10:23:27;;;;;;;8.48;2.38;;;16.80;99.90;;;;;;4152194;28;20053;-72
2021/10/27 10:25:31;;;;;;;4.15;2.03;;;16.80;99.90;;;;;;4154413;28;20051;-72
2021/10/27 10:27:38;;;;;;;6.55;2.40;;;16.90;99.90;;;;;;4150454;28;20132;-72
2021/10/27 10:29:48;;;;;;;4.50;2.42;;;16.90;99.90;;;;;;4153318;28;20120;-72
2021/10/27 10:31:49;;;;;;;9.00;2.67;;;16.90;99.90;;;;;;4155690;28;20044;-71
2021/10/27 10:33:49;;;;;;;5.13;1.92;;;16.90;99.90;;;;;;4153858;28;20041;-71
2021/10/27 10:36:05;;;;;;;8.25;2.10;;;16.90;99.90;;;;;;4154130;28;20038;-71
2021/10/27 10:43:36;;;;;;;4.75;1.85;;;17.10;99.90;;;;;;4156250;28;20037;-71
2021/10/27 10:45:34;;;;;;;2.95;1.65;;;17.10;99.90;;;;;;4154538;28;20128;-71
2021/10/27 11:02:31;;;;;;;6.88;2.33;;;17.40;99.90;;;;;;4151868;28;20547;-71
2021/10/27 11:22:17;;;;;;;5.22;1.95;;;17.50;99.90;;;;;;4153181;28;20033;-71
2021/10/27 11:24:06;;;;;;;7.90;2.03;;;17.60;99.90;;;;;;4150466;28;19924;-71
2021/10/27 11:42:47;;;;;;;4.75;1.42;;;17.80;99.90;;;;;;4151738;28;20041;-71
2021/10/27 11:44:58;;;;;;;4.57;1.77;;;17.80;99.90;;;;;;4152942;28;20061;-71
2021/10/27 11:47:07;;;;;;;5.93;2.00;;;17.90;99.90;;;;;;4153667;28;20164;-71
2021/10/27 11:49:10;;;;;;;4.35;2.20;;;17.90;99.90;;;;;;4155691;28;20045;-71
2021/10/27 11:51:12;;;;;;;4.60;1.42;;;18.00;99.90;;;;;;4156485;28;20045;-71
2021/10/27 11:53:21;;;;;;;7.80;1.57;;;18.00;99.90;;;;;;4151733;28;20041;-71
2021/10/27 11:55:22;;;;;;;3.03;1.40;;;18.10;99.90;;;;;;4157084;28;20452;-71
2021/10/27 11:57:31;;;;;;;5.25;1.65;;;18.20;99.90;;;;;;4133365;28;20038;-71
2021/10/27 11:59:48;;;;;;;9.68;1.30;;;18.10;99.90;;;;;;4152913;28;20148;-71
2021/10/27 12:01:53;;;;;;;5.85;1.63;;;18.20;99.90;;;;;;4151481;28;20056;-71
2021/10/27 12:03:57;;;;;;;9.25;2.10;;;18.20;99.90;;;;;;4153110;28;20083;-71
2021/10/27 12:06:02;;;;;;;5.13;2.00;;;18.20;99.90;;;;;;4154978;28;20882;-71
2021/10/27 12:08:30;;;;;;;4.57;1.60;;;18.20;99.90;;;;;;4159065;28;20124;-71
2021/10/27 12:10:44;;;;;;;4.75;1.75;;;18.10;99.90;;;;;;4159377;28;20879;-71
2021/10/27 12:13:03;;;;;;;4.15;1.40;;;18.20;99.90;;;;;;4160646;28;20033;-71
2021/10/27 12:19:31;;;;;;;6.57;1.95;;;18.20;99.90;;;;;;4159717;28;20060;-71
2021/10/27 12:21:36;;;;;;;5.93;1.48;;;18.20;99.90;;;;;;4158781;28;20041;-71
2021/10/27 12:23:48;;;;;;;6.55;1.85;;;18.20;99.90;;;;;;4156556;28;20072;-71
2021/10/27 12:25:54;;;;;;;5.35;1.63;;;18.20;99.90;;;;;;4161314;28;20033;-71
2021/10/27 12:28:01;;;;;;;5.90;1.75;;;18.20;99.90;;;;;;4155115;28;20067;-71
2021/10/27 12:30:09;;;;;;;9.20;2.28;;;18.10;99.90;;;;;;4143215;28;20040;-71
2021/10/27 12:32:11;;;;;;;4.43;1.75;;;18.10;99.90;;;;;;4174359;28;20048;-71
2021/10/27 12:34:26;;;;;;;6.32;1.42;;;18.10;99.90;;;;;;4159047;28;20041;-71
2021/10/27 12:36:29;;;;;;;4.72;1.60;;;18.10;99.90;;;;;;4157900;28;20116;-71
2021/10/27 12:38:33;;;;;;;5.35;1.60;;;18.10;99.90;;;;;;4158465;28;20052;-71
2021/10/27 12:40:42;;;;;;;5.57;1.90;;;18.00;99.90;;;;;;4157349;28;20163;-71
2021/10/27 12:42:42;;;;;;;2.75;1.63;;;18.00;99.90;;;;;;4158364;28;20128;-71
2021/10/27 12:44:49;;;;;;;4.70;1.80;;;18.00;99.90;;;;;;4158382;28;20093;-71
2021/10/27 12:47:14;;;;;;;6.57;1.70;;;18.00;99.90;;;;;;4158663;28;20120;-71
2021/10/27 12:49:20;;;;;;;9.85;2.30;;;18.10;99.90;;;;;;4154795;28;20512;-71
2021/10/27 12:51:30;;;;;;;4.63;1.67;;;18.00;99.90;;;;;;4156773;28;20380;-71
2021/10/27 12:53:33;;;;;;;4.95;1.67;;;18.00;99.90;;;;;;4158604;28;20385;-71
2021/10/27 12:55:39;;;;;;;6.50;1.90;;;18.00;99.90;;;;;;4151884;28;20037;-71
2021/10/27 12:57:54;;;;;;;6.32;1.88;;;18.00;99.90;;;;;;4156987;28;20129;-71